createdAt,value
2023-04-14T00:03:30.867Z,34.58
2023-04-14T00:08:37.952Z,35.02
2023-04-14T00:13:45.133Z,35.29
2023-04-14T00:18:52.312Z,35.55
2023-04-14T00:23:59.524Z,35.81
2023-04-14T00:29:06.780Z,35.92
2023-04-14T00:34:13.987Z,36.03
2023-04-14T00:39:21.280Z,35.91
2023-04-14T00:44:28.483Z,36.16
2023-04-14T00:49:44.927Z,36.27
2023-04-14T00:54:58.733Z,36.23
2023-04-14T01:00:10.844Z,36.32
2023-04-14T01:06:02.488Z,36.45
2023-04-14T01:15:41.146Z,36.48
2023-04-14T01:16:31.347Z,36.58
2023-04-14T01:21:37.292Z,36.62
2023-04-14T01:26:51.142Z,36.58
2023-04-14T01:32:06.392Z,36.74
2023-04-14T01:37:27.248Z,36.87
2023-04-14T01:42:37.462Z,36.88
2023-04-14T01:47:43.600Z,36.61
2023-04-14T01:53:32.701Z,36.65
2023-04-14T01:58:48.505Z,36.50
2023-04-14T02:04:02.484Z,36.52
2023-04-14T02:09:09.639Z,36.51
2023-04-14T02:14:26.425Z,36.44
2023-04-14T02:20:09.199Z,36.87
2023-04-14T02:27:00.128Z,36.42
2023-04-14T02:30:37.924Z,35.93
2023-04-14T02:36:29.427Z,35.67
2023-04-14T02:41:36.849Z,35.58
2023-04-14T02:46:44.143Z,35.49
2023-04-14T02:51:51.636Z,35.42
2023-04-14T02:56:59.055Z,35.53
2023-04-14T03:02:08.374Z,35.58
2023-04-14T03:07:17.096Z,35.74
2023-04-14T03:12:33.674Z,35.95
2023-04-14T03:18:16.113Z,36.36
2023-04-14T03:23:58.890Z,36.79
2023-04-14T03:29:06.273Z,37.02
2023-04-14T03:34:13.652Z,37.34
2023-04-14T03:39:56.818Z,37.37
2023-04-14T03:45:05.344Z,37.45
2023-04-14T03:50:17.905Z,37.32
2023-04-14T03:55:37.405Z,37.17
2023-04-14T04:01:00.437Z,37.17
2023-04-14T04:06:07.405Z,37.55
2023-04-14T04:11:33.939Z,36.71
2023-04-14T04:16:55.092Z,36.10
2023-04-14T04:22:14.476Z,35.77
2023-04-14T04:27:51.134Z,35.70
2023-04-14T04:33:10.071Z,35.54
2023-04-14T04:38:27.773Z,35.46
2023-04-14T04:43:41.897Z,35.34
2023-04-14T04:50:03.712Z,35.43
2023-04-14T04:54:17.659Z,35.60
2023-04-14T05:00:04.889Z,35.86
2023-04-14T05:05:12.377Z,35.93
2023-04-14T05:10:45.832Z,36.08
2023-04-14T05:16:19.110Z,36.48
2023-04-14T05:22:17.610Z,36.58
2023-04-14T05:27:12.564Z,37.01
2023-04-14T05:32:07.712Z,37.58
2023-04-14T05:37:18.643Z,37.67
2023-04-14T05:42:30.871Z,37.81
2023-04-14T05:48:18.119Z,38.02
2023-04-14T05:54:05.496Z,38.07
2023-04-14T06:04:38.031Z,37.22
2023-04-14T06:10:25.570Z,36.29
2023-04-14T06:15:39.117Z,36.18
2023-04-14T06:20:46.669Z,36.13
2023-04-14T06:26:07.166Z,36.06
2023-04-14T06:31:18.256Z,36.03
2023-04-14T06:36:30.809Z,35.89
2023-04-14T06:41:43.183Z,36.01
2023-04-14T06:46:55.281Z,36.19
2023-04-14T06:52:01.030Z,36.64
2023-04-14T06:57:08.194Z,36.34
2023-04-14T07:02:15.431Z,36.13
2023-04-14T07:07:22.581Z,35.90
2023-04-14T07:12:29.747Z,35.56
2023-04-14T07:17:37.106Z,35.33
2023-04-14T07:22:44.247Z,35.13
2023-04-14T07:28:02.641Z,34.91
2023-04-14T07:32:58.622Z,34.80
2023-04-14T07:38:06.387Z,35.25
2023-04-14T07:43:13.574Z,34.92
2023-04-14T07:48:20.735Z,34.87
2023-04-14T07:53:27.926Z,34.82
2023-04-14T07:58:35.095Z,34.24
2023-04-14T08:03:45.195Z,34.20
2023-04-14T08:08:49.953Z,34.10
2023-04-14T08:13:57.302Z,34.05
2023-04-14T08:19:05.049Z,34.11
2023-04-14T08:24:11.690Z,34.41
2023-04-14T08:29:18.933Z,34.66
2023-04-14T08:34:28.589Z,34.86
2023-04-14T08:39:33.338Z,34.84
2023-04-14T08:44:40.590Z,34.55
2023-04-14T08:49:47.880Z,34.40
2023-04-14T08:54:55.145Z,33.96
2023-04-14T09:00:02.436Z,34.18
2023-04-14T09:05:09.567Z,34.08
2023-04-14T09:10:16.826Z,33.54
2023-04-14T09:15:24.005Z,33.92
2023-04-14T09:20:40.261Z,33.55
2023-04-14T09:25:39.322Z,34.05
2023-04-14T09:30:46.621Z,33.33
2023-04-14T09:35:53.829Z,33.36
2023-04-14T09:41:01.214Z,33.36
2023-04-14T09:46:08.511Z,33.72
2023-04-14T09:51:15.593Z,33.23
2023-04-14T09:56:22.820Z,33.38
2023-04-14T10:01:30.122Z,33.41
2023-04-14T10:06:37.272Z,33.75
2023-04-14T10:11:44.570Z,33.66
2023-04-14T10:16:51.776Z,33.17
2023-04-14T10:21:58.983Z,33.54
2023-04-14T10:27:06.276Z,33.80
2023-04-14T10:32:13.434Z,33.86
2023-04-14T10:37:20.671Z,33.90
2023-04-14T10:42:30.077Z,33.75
2023-04-14T10:47:37.356Z,33.59
2023-04-14T10:52:44.528Z,33.66
2023-04-14T10:57:51.763Z,33.54
2023-04-14T11:02:59.089Z,33.13
2023-04-14T11:08:06.185Z,32.95
2023-04-14T11:13:13.725Z,32.75
2023-04-14T11:18:20.648Z,32.84
2023-04-14T11:23:27.838Z,32.84
2023-04-14T11:28:35.060Z,32.94
2023-04-14T11:33:42.822Z,33.01
2023-04-14T11:38:49.540Z,32.88
2023-04-14T11:43:56.833Z,32.85
2023-04-14T11:49:04.089Z,32.78
2023-04-14T11:54:11.288Z,32.74
2023-04-14T11:59:18.449Z,32.47
2023-04-14T12:04:25.808Z,32.45
2023-04-14T12:09:32.907Z,32.33
2023-04-14T12:14:40.114Z,32.12
2023-04-14T12:19:47.269Z,32.40
2023-04-14T12:24:54.484Z,32.16
2023-04-14T12:30:01.792Z,32.03
2023-04-14T12:35:08.956Z,31.94
2023-04-14T12:40:16.129Z,31.74
2023-04-14T12:45:23.462Z,31.79
2023-04-14T12:50:30.693Z,31.74
2023-04-14T12:55:37.894Z,31.62
2023-04-14T13:00:45.235Z,31.51
2023-04-14T13:05:52.492Z,31.50
2023-04-14T13:10:59.737Z,31.30
2023-04-14T13:16:14.873Z,31.23
2023-04-14T13:21:15.343Z,31.38
2023-04-14T13:26:22.540Z,31.72
2023-04-14T13:31:29.993Z,32.43
2023-04-14T13:36:37.198Z,32.49
2023-04-14T13:41:44.972Z,32.78
2023-04-14T13:46:52.378Z,32.22
2023-04-14T13:51:59.597Z,31.64
2023-04-14T13:57:06.851Z,32.75
2023-04-14T14:02:14.212Z,32.34
2023-04-14T14:07:21.455Z,31.56
2023-04-14T14:12:28.678Z,32.02
2023-04-14T14:17:35.941Z,31.86
2023-04-14T14:22:43.127Z,31.24
2023-04-14T14:27:50.341Z,32.27
2023-04-14T14:32:57.608Z,32.43
2023-04-14T14:38:04.827Z,32.98
2023-04-14T14:43:12.098Z,32.09
2023-04-14T14:48:19.308Z,32.03
2023-04-14T14:53:28.224Z,32.36
2023-04-14T14:58:35.428Z,32.85
2023-04-14T15:03:42.844Z,32.66
2023-04-14T15:08:50.573Z,32.72
2023-04-14T15:13:57.791Z,32.61
2023-04-14T15:19:05.076Z,32.76
2023-04-14T15:24:12.273Z,32.69
2023-04-14T15:29:19.573Z,32.86
2023-04-14T15:34:26.713Z,32.52
2023-04-14T15:39:33.973Z,32.36
2023-04-14T15:44:41.157Z,32.16
2023-04-14T15:49:50.167Z,31.85
2023-04-14T15:54:55.597Z,32.20
2023-04-14T16:00:02.874Z,32.28
2023-04-14T16:05:10.069Z,31.52
2023-04-14T16:10:17.142Z,30.99
2023-04-14T16:15:24.351Z,31.78
2023-04-14T16:20:31.546Z,32.00
2023-04-14T16:25:38.734Z,32.27
2023-04-14T16:30:45.993Z,30.49
2023-04-14T16:35:53.208Z,31.35
2023-04-14T16:41:00.434Z,31.39
2023-04-14T16:46:07.841Z,31.92
2023-04-14T16:51:15.087Z,31.86
2023-04-14T16:56:22.314Z,32.00
2023-04-14T17:01:29.611Z,32.01
2023-04-14T17:06:36.824Z,32.12
2023-04-14T17:11:44.363Z,32.65
2023-04-14T17:16:51.837Z,32.41
2023-04-14T17:21:59.327Z,32.49
2023-04-14T17:27:06.896Z,32.52
2023-04-14T17:32:14.685Z,32.29
2023-04-14T17:37:22.320Z,32.33
2023-04-14T17:42:29.851Z,32.11
2023-04-14T17:47:37.644Z,32.06
2023-04-14T17:52:45.304Z,31.96
2023-04-14T17:57:52.909Z,31.81
2023-04-14T18:03:00.583Z,31.72
2023-04-14T18:08:08.246Z,31.88
2023-04-14T18:13:15.618Z,31.88
2023-04-14T18:18:23.967Z,31.87
2023-04-14T18:23:30.379Z,31.92
2023-04-14T18:33:44.822Z,31.90
2023-04-14T18:38:52.314Z,31.98
2023-04-14T18:43:59.890Z,32.04
2023-04-14T18:49:07.610Z,32.16
2023-04-14T18:54:15.354Z,32.13
2023-04-14T18:59:23.039Z,32.23
2023-04-14T19:04:30.682Z,32.03
2023-04-14T19:09:38.570Z,32.20
2023-04-14T19:14:46.506Z,32.47
2023-04-14T19:19:54.228Z,32.39
2023-04-14T19:25:01.955Z,32.38
2023-04-14T19:30:11.501Z,32.44
2023-04-14T19:35:19.800Z,32.00
2023-04-14T19:40:27.370Z,31.85
2023-04-14T19:45:35.263Z,31.47
2023-04-14T19:50:43.381Z,31.27
2023-04-14T19:55:51.037Z,31.40
2023-04-14T20:01:01.146Z,31.50
2023-04-14T20:06:08.897Z,31.53
2023-04-14T20:11:16.636Z,31.72
2023-04-14T20:16:24.362Z,31.51
2023-04-14T20:21:31.936Z,31.64
2023-04-14T20:26:39.293Z,31.42
2023-04-14T20:31:46.782Z,31.48
2023-04-14T20:36:54.378Z,31.39
2023-04-14T20:42:01.764Z,31.49
2023-04-14T20:47:08.961Z,31.48
2023-04-14T20:52:16.221Z,31.48
2023-04-14T20:57:23.413Z,31.35
2023-04-14T21:02:30.936Z,31.66
2023-04-14T21:07:39.979Z,31.46
2023-04-14T21:15:24.879Z,31.75
2023-04-14T21:17:54.456Z,31.28
2023-04-14T21:23:01.627Z,31.01
2023-04-14T21:28:08.936Z,30.96
2023-04-14T21:33:16.201Z,31.01
2023-04-14T21:38:23.389Z,31.11
2023-04-14T21:43:30.608Z,31.27
2023-04-14T21:48:37.750Z,31.43
2023-04-14T21:53:44.936Z,31.53
2023-04-14T21:58:52.159Z,31.00
2023-04-14T22:03:59.653Z,31.37
2023-04-14T22:09:07.355Z,31.14
2023-04-14T22:14:14.669Z,31.21
2023-04-14T22:19:21.984Z,31.04
2023-04-14T22:24:29.339Z,31.03
2023-04-14T22:29:40.127Z,31.04
2023-04-14T22:34:47.405Z,30.87
2023-04-14T22:39:54.853Z,30.63
2023-04-14T22:45:02.132Z,30.49
2023-04-14T22:50:09.322Z,30.70
2023-04-14T22:55:16.480Z,30.68
2023-04-14T23:00:23.820Z,30.32
2023-04-14T23:05:31.086Z,30.37
2023-04-14T23:10:38.329Z,30.68
2023-04-14T23:15:45.610Z,30.59
2023-04-14T23:20:52.830Z,30.46
2023-04-14T23:26:00.172Z,30.45
2023-04-14T23:31:07.695Z,30.27
2023-04-14T23:36:34.806Z,30.67
2023-04-14T23:42:15.049Z,30.62
2023-04-14T23:47:25.564Z,30.59
2023-04-14T23:53:19.717Z,30.59
2023-04-14T23:59:00.140Z,30.56
